sensor_id;sensor_type;location;lat;lon;timestamp;P1;durP1;ratioP1;P2;durP2;ratioP2
69369;SDS011;56530;42.640;23.372;2022-10-16T00:00:21;10.10;;;9.03;;
69369;SDS011;56530;42.640;23.372;2022-10-16T00:02:46;11.27;;;10.00;;
69369;SDS011;56530;42.640;23.372;2022-10-16T00:05:11;13.87;;;10.07;;
69369;SDS011;56530;42.640;23.372;2022-10-16T00:07:37;14.18;;;9.50;;
69369;SDS011;56530;42.640;23.372;2022-10-16T00:10:02;11.43;;;9.75;;
69369;SDS011;56530;42.640;23.372;2022-10-16T00:12:28;12.33;;;10.23;;
69369;SDS011;56530;42.640;23.372;2022-10-16T00:14:53;10.83;;;9.63;;
69369;SDS011;56530;42.640;23.372;2022-10-16T00:17:18;11.70;;;10.23;;
69369;SDS011;56530;42.640;23.372;2022-10-16T00:19:44;10.90;;;9.77;;
69369;SDS011;56530;42.640;23.372;2022-10-16T00:22:09;12.57;;;10.23;;
69369;SDS011;56530;42.640;23.372;2022-10-16T00:24:34;12.02;;;9.82;;
69369;SDS011;56530;42.640;23.372;2022-10-16T00:27:01;11.32;;;10.13;;
69369;SDS011;56530;42.640;23.372;2022-10-16T00:29:26;12.00;;;10.60;;
69369;SDS011;56530;42.640;23.372;2022-10-16T00:31:52;13.43;;;10.00;;
69369;SDS011;56530;42.640;23.372;2022-10-16T00:34:17;12.30;;;10.63;;
69369;SDS011;56530;42.640;23.372;2022-10-16T00:36:43;13.57;;;11.05;;
69369;SDS011;56530;42.640;23.372;2022-10-16T00:39:08;13.20;;;10.80;;
69369;SDS011;56530;42.640;23.372;2022-10-16T00:41:33;11.27;;;9.87;;
69369;SDS011;56530;42.640;23.372;2022-10-16T00:44:00;12.17;;;10.77;;
69369;SDS011;56530;42.640;23.372;2022-10-16T00:49:03;11.23;;;10.02;;
69369;SDS011;56530;42.640;23.372;2022-10-16T00:51:32;13.18;;;10.52;;
69369;SDS011;56530;42.640;23.372;2022-10-16T00:53:59;12.23;;;10.23;;
69369;SDS011;56530;42.640;23.372;2022-10-16T00:56:26;11.35;;;9.50;;
69369;SDS011;56530;42.640;23.372;2022-10-16T00:58:51;11.53;;;9.80;;
69369;SDS011;56530;42.640;23.372;2022-10-16T01:01:17;12.75;;;10.13;;
69369;SDS011;56530;42.640;23.372;2022-10-16T01:03:42;11.37;;;10.17;;
69369;SDS011;56530;42.640;23.372;2022-10-16T01:09:02;11.35;;;9.93;;
69369;SDS011;56530;42.640;23.372;2022-10-16T01:14:14;10.63;;;8.77;;
69369;SDS011;56530;42.640;23.372;2022-10-16T01:16:51;13.15;;;8.70;;
69369;SDS011;56530;42.640;23.372;2022-10-16T01:21:50;10.15;;;8.73;;
69369;SDS011;56530;42.640;23.372;2022-10-16T01:32:40;14.10;;;6.22;;
69369;SDS011;56530;42.640;23.372;2022-10-16T01:38:06;7.68;;;5.82;;
69369;SDS011;56530;42.640;23.372;2022-10-16T01:40:44;9.85;;;5.72;;
69369;SDS011;56530;42.640;23.372;2022-10-16T01:43:15;7.03;;;5.22;;
69369;SDS011;56530;42.640;23.372;2022-10-16T01:45:44;5.22;;;4.40;;
69369;SDS011;56530;42.640;23.372;2022-10-16T01:48:10;9.73;;;4.88;;
69369;SDS011;56530;42.640;23.372;2022-10-16T01:50:38;6.35;;;4.50;;
69369;SDS011;56530;42.640;23.372;2022-10-16T01:53:08;4.93;;;4.50;;
69369;SDS011;56530;42.640;23.372;2022-10-16T01:55:37;6.32;;;3.83;;
69369;SDS011;56530;42.640;23.372;2022-10-16T01:58:07;6.20;;;4.45;;
69369;SDS011;56530;42.640;23.372;2022-10-16T02:00:34;7.05;;;4.07;;
69369;SDS011;56530;42.640;23.372;2022-10-16T02:03:02;5.75;;;3.72;;
69369;SDS011;56530;42.640;23.372;2022-10-16T02:05:33;5.05;;;4.03;;
69369;SDS011;56530;42.640;23.372;2022-10-16T02:08:02;5.18;;;4.25;;
69369;SDS011;56530;42.640;23.372;2022-10-16T02:10:28;5.35;;;4.85;;
69369;SDS011;56530;42.640;23.372;2022-10-16T02:13:17;4.60;;;4.05;;
69369;SDS011;56530;42.640;23.372;2022-10-16T02:15:46;6.20;;;4.55;;
69369;SDS011;56530;42.640;23.372;2022-10-16T02:18:12;6.90;;;5.47;;
69369;SDS011;56530;42.640;23.372;2022-10-16T02:20:59;6.38;;;5.03;;
69369;SDS011;56530;42.640;23.372;2022-10-16T02:23:45;6.43;;;4.50;;
69369;SDS011;56530;42.640;23.372;2022-10-16T02:26:22;5.53;;;4.57;;
69369;SDS011;56530;42.640;23.372;2022-10-16T02:28:53;6.85;;;4.20;;
69369;SDS011;56530;42.640;23.372;2022-10-16T02:31:27;5.13;;;4.63;;
69369;SDS011;56530;42.640;23.372;2022-10-16T02:33:55;5.40;;;4.30;;
69369;SDS011;56530;42.640;23.372;2022-10-16T02:36:21;4.85;;;4.45;;
69369;SDS011;56530;42.640;23.372;2022-10-16T02:38:47;10.73;;;5.35;;
69369;SDS011;56530;42.640;23.372;2022-10-16T02:41:13;5.22;;;4.43;;
69369;SDS011;56530;42.640;23.372;2022-10-16T02:43:39;6.03;;;4.82;;
69369;SDS011;56530;42.640;23.372;2022-10-16T02:46:04;4.72;;;4.28;;
69369;SDS011;56530;42.640;23.372;2022-10-16T02:48:30;10.23;;;4.72;;
69369;SDS011;56530;42.640;23.372;2022-10-16T02:50:55;5.13;;;4.63;;
69369;SDS011;56530;42.640;23.372;2022-10-16T02:53:22;6.07;;;5.13;;
69369;SDS011;56530;42.640;23.372;2022-10-16T02:55:47;6.78;;;4.80;;
69369;SDS011;56530;42.640;23.372;2022-10-16T02:58:13;10.32;;;5.07;;
69369;SDS011;56530;42.640;23.372;2022-10-16T03:00:38;6.07;;;4.85;;
69369;SDS011;56530;42.640;23.372;2022-10-16T03:03:03;7.43;;;5.20;;
69369;SDS011;56530;42.640;23.372;2022-10-16T03:05:29;6.63;;;4.90;;
69369;SDS011;56530;42.640;23.372;2022-10-16T03:07:54;5.97;;;5.38;;
69369;SDS011;56530;42.640;23.372;2022-10-16T03:10:20;8.10;;;5.32;;
69369;SDS011;56530;42.640;23.372;2022-10-16T03:12:46;6.05;;;5.50;;
69369;SDS011;56530;42.640;23.372;2022-10-16T03:15:11;5.43;;;4.88;;
69369;SDS011;56530;42.640;23.372;2022-10-16T03:17:36;8.73;;;5.80;;
69369;SDS011;56530;42.640;23.372;2022-10-16T03:20:02;5.63;;;4.90;;
69369;SDS011;56530;42.640;23.372;2022-10-16T03:22:28;7.03;;;5.97;;
69369;SDS011;56530;42.640;23.372;2022-10-16T03:24:53;10.77;;;6.35;;
69369;SDS011;56530;42.640;23.372;2022-10-16T03:27:19;8.02;;;5.68;;
69369;SDS011;56530;42.640;23.372;2022-10-16T03:29:45;6.90;;;5.78;;
69369;SDS011;56530;42.640;23.372;2022-10-16T03:32:11;6.85;;;5.88;;
69369;SDS011;56530;42.640;23.372;2022-10-16T03:34:36;8.52;;;5.47;;
69369;SDS011;56530;42.640;23.372;2022-10-16T03:37:01;8.40;;;6.38;;
69369;SDS011;56530;42.640;23.372;2022-10-16T03:39:27;7.75;;;6.15;;
69369;SDS011;56530;42.640;23.372;2022-10-16T03:41:52;8.45;;;5.57;;
69369;SDS011;56530;42.640;23.372;2022-10-16T03:44:18;8.30;;;5.65;;
69369;SDS011;56530;42.640;23.372;2022-10-16T03:46:43;7.72;;;6.13;;
69369;SDS011;56530;42.640;23.372;2022-10-16T03:49:08;6.18;;;5.57;;
69369;SDS011;56530;42.640;23.372;2022-10-16T03:51:34;9.60;;;5.18;;
69369;SDS011;56530;42.640;23.372;2022-10-16T03:53:59;6.22;;;5.13;;
69369;SDS011;56530;42.640;23.372;2022-10-16T03:56:25;7.05;;;5.80;;
69369;SDS011;56530;42.640;23.372;2022-10-16T03:58:51;6.80;;;5.82;;
69369;SDS011;56530;42.640;23.372;2022-10-16T04:01:16;7.15;;;5.70;;
69369;SDS011;56530;42.640;23.372;2022-10-16T04:03:42;7.57;;;5.88;;
69369;SDS011;56530;42.640;23.372;2022-10-16T04:06:07;9.27;;;7.30;;
69369;SDS011;56530;42.640;23.372;2022-10-16T04:08:33;8.95;;;7.15;;
69369;SDS011;56530;42.640;23.372;2022-10-16T04:11:01;10.50;;;8.43;;
69369;SDS011;56530;42.640;23.372;2022-10-16T04:13:27;8.27;;;7.45;;
69369;SDS011;56530;42.640;23.372;2022-10-16T04:15:52;10.48;;;7.95;;
69369;SDS011;56530;42.640;23.372;2022-10-16T04:18:18;10.98;;;8.07;;
69369;SDS011;56530;42.640;23.372;2022-10-16T04:20:43;12.60;;;7.32;;
69369;SDS011;56530;42.640;23.372;2022-10-16T04:23:08;11.15;;;7.20;;
69369;SDS011;56530;42.640;23.372;2022-10-16T04:25:34;10.43;;;8.27;;
69369;SDS011;56530;42.640;23.372;2022-10-16T04:27:59;10.40;;;7.57;;
69369;SDS011;56530;42.640;23.372;2022-10-16T04:30:24;9.75;;;7.32;;
69369;SDS011;56530;42.640;23.372;2022-10-16T04:32:50;11.63;;;7.40;;
69369;SDS011;56530;42.640;23.372;2022-10-16T04:35:19;8.65;;;6.30;;
69369;SDS011;56530;42.640;23.372;2022-10-16T04:37:45;9.77;;;7.22;;
69369;SDS011;56530;42.640;23.372;2022-10-16T04:40:11;9.73;;;6.82;;
69369;SDS011;56530;42.640;23.372;2022-10-16T04:42:36;9.35;;;6.78;;
69369;SDS011;56530;42.640;23.372;2022-10-16T04:45:02;9.13;;;6.07;;
69369;SDS011;56530;42.640;23.372;2022-10-16T04:47:29;9.48;;;5.97;;
69369;SDS011;56530;42.640;23.372;2022-10-16T04:49:54;7.65;;;5.60;;
69369;SDS011;56530;42.640;23.372;2022-10-16T04:52:19;7.72;;;5.65;;
69369;SDS011;56530;42.640;23.372;2022-10-16T04:54:46;9.15;;;4.88;;
69369;SDS011;56530;42.640;23.372;2022-10-16T04:57:11;6.45;;;5.13;;
69369;SDS011;56530;42.640;23.372;2022-10-16T04:59:37;6.13;;;5.53;;
69369;SDS011;56530;42.640;23.372;2022-10-16T05:02:02;4.82;;;4.40;;
69369;SDS011;56530;42.640;23.372;2022-10-16T05:04:28;5.40;;;4.70;;
69369;SDS011;56530;42.640;23.372;2022-10-16T05:06:53;8.05;;;4.32;;
69369;SDS011;56530;42.640;23.372;2022-10-16T05:09:19;5.20;;;4.70;;
69369;SDS011;56530;42.640;23.372;2022-10-16T05:11:44;5.40;;;4.90;;
69369;SDS011;56530;42.640;23.372;2022-10-16T05:14:09;5.63;;;4.65;;
69369;SDS011;56530;42.640;23.372;2022-10-16T05:16:35;6.03;;;4.20;;
69369;SDS011;56530;42.640;23.372;2022-10-16T05:19:00;6.57;;;4.43;;
69369;SDS011;56530;42.640;23.372;2022-10-16T05:21:26;7.45;;;4.45;;
69369;SDS011;56530;42.640;23.372;2022-10-16T05:23:52;6.93;;;4.65;;
69369;SDS011;56530;42.640;23.372;2022-10-16T05:26:18;6.25;;;5.07;;
69369;SDS011;56530;42.640;23.372;2022-10-16T05:28:43;6.00;;;5.17;;
69369;SDS011;56530;42.640;23.372;2022-10-16T05:31:09;6.70;;;5.30;;
69369;SDS011;56530;42.640;23.372;2022-10-16T05:33:34;9.48;;;5.85;;
69369;SDS011;56530;42.640;23.372;2022-10-16T05:36:01;5.63;;;5.00;;
69369;SDS011;56530;42.640;23.372;2022-10-16T05:38:31;6.22;;;5.10;;
69369;SDS011;56530;42.640;23.372;2022-10-16T05:40:56;6.40;;;5.23;;
69369;SDS011;56530;42.640;23.372;2022-10-16T05:43:22;9.88;;;5.05;;
69369;SDS011;56530;42.640;23.372;2022-10-16T05:45:59;5.03;;;4.63;;
69369;SDS011;56530;42.640;23.372;2022-10-16T05:48:26;7.82;;;4.82;;
69369;SDS011;56530;42.640;23.372;2022-10-16T05:50:58;5.47;;;4.90;;
69369;SDS011;56530;42.640;23.372;2022-10-16T05:53:23;5.57;;;5.07;;
69369;SDS011;56530;42.640;23.372;2022-10-16T05:55:54;5.75;;;4.45;;
69369;SDS011;56530;42.640;23.372;2022-10-16T05:58:19;5.93;;;4.78;;
69369;SDS011;56530;42.640;23.372;2022-10-16T06:00:52;4.97;;;4.45;;
69369;SDS011;56530;42.640;23.372;2022-10-16T06:03:18;4.65;;;4.18;;
69369;SDS011;56530;42.640;23.372;2022-10-16T06:05:43;9.43;;;4.70;;
69369;SDS011;56530;42.640;23.372;2022-10-16T06:08:08;9.57;;;4.82;;
69369;SDS011;56530;42.640;23.372;2022-10-16T06:10:34;5.30;;;4.80;;
69369;SDS011;56530;42.640;23.372;2022-10-16T06:12:59;7.68;;;4.57;;
69369;SDS011;56530;42.640;23.372;2022-10-16T06:15:25;7.82;;;5.22;;
69369;SDS011;56530;42.640;23.372;2022-10-16T06:17:50;6.90;;;4.60;;
69369;SDS011;56530;42.640;23.372;2022-10-16T06:20:15;8.32;;;5.75;;
69369;SDS011;56530;42.640;23.372;2022-10-16T06:22:41;6.25;;;4.78;;
69369;SDS011;56530;42.640;23.372;2022-10-16T06:25:06;7.32;;;4.93;;
69369;SDS011;56530;42.640;23.372;2022-10-16T06:27:32;6.30;;;4.57;;
69369;SDS011;56530;42.640;23.372;2022-10-16T06:29:57;6.10;;;4.57;;
69369;SDS011;56530;42.640;23.372;2022-10-16T06:32:22;5.70;;;5.13;;
69369;SDS011;56530;42.640;23.372;2022-10-16T06:34:48;8.82;;;5.90;;
69369;SDS011;56530;42.640;23.372;2022-10-16T06:37:13;6.82;;;5.03;;
69369;SDS011;56530;42.640;23.372;2022-10-16T06:39:38;5.38;;;4.88;;
69369;SDS011;56530;42.640;23.372;2022-10-16T06:42:04;5.82;;;4.60;;
69369;SDS011;56530;42.640;23.372;2022-10-16T06:44:29;5.20;;;4.70;;
69369;SDS011;56530;42.640;23.372;2022-10-16T06:46:55;5.93;;;4.63;;
69369;SDS011;56530;42.640;23.372;2022-10-16T06:49:20;5.93;;;5.07;;
69369;SDS011;56530;42.640;23.372;2022-10-16T06:51:47;7.55;;;4.55;;
69369;SDS011;56530;42.640;23.372;2022-10-16T06:54:14;6.68;;;4.40;;
69369;SDS011;56530;42.640;23.372;2022-10-16T06:56:40;8.02;;;4.80;;
69369;SDS011;56530;42.640;23.372;2022-10-16T06:59:05;7.20;;;5.47;;
69369;SDS011;56530;42.640;23.372;2022-10-16T07:01:31;8.88;;;5.65;;
69369;SDS011;56530;42.640;23.372;2022-10-16T07:03:57;8.65;;;6.05;;
69369;SDS011;56530;42.640;23.372;2022-10-16T07:06:23;9.43;;;5.35;;
69369;SDS011;56530;42.640;23.372;2022-10-16T07:08:50;8.77;;;6.78;;
69369;SDS011;56530;42.640;23.372;2022-10-16T07:11:17;8.48;;;6.90;;
69369;SDS011;56530;42.640;23.372;2022-10-16T07:13:44;11.10;;;6.63;;
69369;SDS011;56530;42.640;23.372;2022-10-16T07:16:11;7.95;;;6.80;;
69369;SDS011;56530;42.640;23.372;2022-10-16T07:18:43;9.10;;;6.45;;
69369;SDS011;56530;42.640;23.372;2022-10-16T07:21:20;7.97;;;6.32;;
69369;SDS011;56530;42.640;23.372;2022-10-16T07:23:49;6.47;;;5.88;;
69369;SDS011;56530;42.640;23.372;2022-10-16T07:26:15;7.97;;;6.50;;
69369;SDS011;56530;42.640;23.372;2022-10-16T07:28:42;10.90;;;6.50;;
69369;SDS011;56530;42.640;23.372;2022-10-16T07:31:09;8.13;;;5.45;;
69369;SDS011;56530;42.640;23.372;2022-10-16T07:33:36;10.48;;;6.53;;
69369;SDS011;56530;42.640;23.372;2022-10-16T07:36:03;12.27;;;7.20;;
69369;SDS011;56530;42.640;23.372;2022-10-16T07:38:29;15.20;;;7.35;;
69369;SDS011;56530;42.640;23.372;2022-10-16T07:40:57;11.02;;;6.80;;
69369;SDS011;56530;42.640;23.372;2022-10-16T07:43:23;11.48;;;7.38;;
69369;SDS011;56530;42.640;23.372;2022-10-16T07:45:49;11.93;;;7.53;;
69369;SDS011;56530;42.640;23.372;2022-10-16T07:48:15;11.75;;;7.75;;
69369;SDS011;56530;42.640;23.372;2022-10-16T07:50:41;13.80;;;8.43;;
69369;SDS011;56530;42.640;23.372;2022-10-16T07:53:07;10.40;;;7.30;;
69369;SDS011;56530;42.640;23.372;2022-10-16T07:55:33;13.05;;;8.40;;
69369;SDS011;56530;42.640;23.372;2022-10-16T07:57:58;8.45;;;7.57;;
69369;SDS011;56530;42.640;23.372;2022-10-16T08:00:24;13.70;;;8.38;;
69369;SDS011;56530;42.640;23.372;2022-10-16T08:02:49;13.70;;;7.80;;
69369;SDS011;56530;42.640;23.372;2022-10-16T08:05:14;17.67;;;8.68;;
69369;SDS011;56530;42.640;23.372;2022-10-16T08:07:40;13.57;;;7.30;;
69369;SDS011;56530;42.640;23.372;2022-10-16T08:10:05;9.35;;;5.85;;
69369;SDS011;56530;42.640;23.372;2022-10-16T08:12:31;6.82;;;5.03;;
69369;SDS011;56530;42.640;23.372;2022-10-16T08:14:56;7.70;;;5.85;;
69369;SDS011;56530;42.640;23.372;2022-10-16T08:17:22;11.07;;;6.30;;
69369;SDS011;56530;42.640;23.372;2022-10-16T08:19:47;9.48;;;6.10;;
69369;SDS011;56530;42.640;23.372;2022-10-16T08:22:16;13.60;;;7.50;;
69369;SDS011;56530;42.640;23.372;2022-10-16T08:24:41;11.60;;;6.60;;
69369;SDS011;56530;42.640;23.372;2022-10-16T08:27:07;9.85;;;5.40;;
69369;SDS011;56530;42.640;23.372;2022-10-16T08:29:33;8.10;;;5.70;;
69369;SDS011;56530;42.640;23.372;2022-10-16T08:31:59;5.60;;;5.07;;
69369;SDS011;56530;42.640;23.372;2022-10-16T08:34:27;8.27;;;5.30;;
69369;SDS011;56530;42.640;23.372;2022-10-16T08:36:53;9.07;;;5.60;;
69369;SDS011;56530;42.640;23.372;2022-10-16T08:39:19;8.63;;;5.70;;
69369;SDS011;56530;42.640;23.372;2022-10-16T08:47:45;5.45;;;4.50;;
69369;SDS011;56530;42.640;23.372;2022-10-16T08:50:22;5.25;;;4.63;;
69369;SDS011;56530;42.640;23.372;2022-10-16T08:52:50;4.63;;;4.05;;
69369;SDS011;56530;42.640;23.372;2022-10-16T08:55:28;9.15;;;4.30;;
69369;SDS011;56530;42.640;23.372;2022-10-16T08:58:26;7.40;;;3.85;;
69369;SDS011;56530;42.640;23.372;2022-10-16T09:00:56;4.93;;;4.35;;
69369;SDS011;56530;42.640;23.372;2022-10-16T09:06:22;4.47;;;3.72;;
69369;SDS011;56530;42.640;23.372;2022-10-16T09:17:49;6.97;;;4.15;;
69369;SDS011;56530;42.640;23.372;2022-10-16T09:23:21;4.40;;;3.60;;
69369;SDS011;56530;42.640;23.372;2022-10-16T09:25:49;6.18;;;3.78;;
69369;SDS011;56530;42.640;23.372;2022-10-16T09:28:16;5.75;;;3.60;;
69369;SDS011;56530;42.640;23.372;2022-10-16T09:30:42;4.35;;;3.92;;
69369;SDS011;56530;42.640;23.372;2022-10-16T09:33:09;5.43;;;3.72;;
69369;SDS011;56530;42.640;23.372;2022-10-16T09:35:39;4.97;;;3.53;;
69369;SDS011;56530;42.640;23.372;2022-10-16T09:38:05;10.02;;;4.65;;
69369;SDS011;56530;42.640;23.372;2022-10-16T09:40:32;8.55;;;4.72;;
69369;SDS011;56530;42.640;23.372;2022-10-16T09:46:03;6.25;;;4.10;;
69369;SDS011;56530;42.640;23.372;2022-10-16T09:48:42;6.45;;;4.00;;
69369;SDS011;56530;42.640;23.372;2022-10-16T09:51:19;3.72;;;3.33;;
69369;SDS011;56530;42.640;23.372;2022-10-16T09:53:47;3.63;;;3.17;;
69369;SDS011;56530;42.640;23.372;2022-10-16T09:56:21;7.20;;;4.25;;
69369;SDS011;56530;42.640;23.372;2022-10-16T09:58:55;5.00;;;3.15;;
69369;SDS011;56530;42.640;23.372;2022-10-16T10:01:25;4.00;;;3.42;;
69369;SDS011;56530;42.640;23.372;2022-10-16T10:03:55;6.07;;;3.95;;
69369;SDS011;56530;42.640;23.372;2022-10-16T10:06:27;7.03;;;4.32;;
69369;SDS011;56530;42.640;23.372;2022-10-16T10:11:40;7.93;;;3.92;;
69369;SDS011;56530;42.640;23.372;2022-10-16T10:14:18;5.30;;;4.47;;
69369;SDS011;56530;42.640;23.372;2022-10-16T10:16:44;4.90;;;4.22;;
69369;SDS011;56530;42.640;23.372;2022-10-16T10:19:16;3.88;;;3.13;;
69369;SDS011;56530;42.640;23.372;2022-10-16T10:21:46;5.15;;;4.00;;
69369;SDS011;56530;42.640;23.372;2022-10-16T10:24:13;4.28;;;3.88;;
69369;SDS011;56530;42.640;23.372;2022-10-16T10:26:41;5.55;;;4.35;;
69369;SDS011;56530;42.640;23.372;2022-10-16T10:32:10;5.30;;;3.55;;
69369;SDS011;56530;42.640;23.372;2022-10-16T10:38:00;6.93;;;5.97;;
69369;SDS011;56530;42.640;23.372;2022-10-16T10:40:47;7.18;;;4.88;;
69369;SDS011;56530;42.640;23.372;2022-10-16T10:45:50;6.82;;;3.83;;
69369;SDS011;56530;42.640;23.372;2022-10-16T10:48:28;4.60;;;4.00;;
69369;SDS011;56530;42.640;23.372;2022-10-16T10:51:11;4.30;;;3.35;;
69369;SDS011;56530;42.640;23.372;2022-10-16T10:56:39;3.90;;;3.50;;
69369;SDS011;56530;42.640;23.372;2022-10-16T11:02:04;3.20;;;2.90;;
69369;SDS011;56530;42.640;23.372;2022-10-16T11:04:52;4.78;;;3.05;;
69369;SDS011;56530;42.640;23.372;2022-10-16T11:07:43;3.25;;;2.95;;
69369;SDS011;56530;42.640;23.372;2022-10-16T11:10:17;3.47;;;3.15;;
69369;SDS011;56530;42.640;23.372;2022-10-16T11:12:50;2.92;;;2.38;;
69369;SDS011;56530;42.640;23.372;2022-10-16T11:15:21;6.60;;;2.88;;
69369;SDS011;56530;42.640;23.372;2022-10-16T11:20:24;2.60;;;2.40;;
69369;SDS011;56530;42.640;23.372;2022-10-16T11:23:00;2.22;;;2.03;;
69369;SDS011;56530;42.640;23.372;2022-10-16T11:25:33;2.25;;;2.05;;
69369;SDS011;56530;42.640;23.372;2022-10-16T11:28:03;2.25;;;2.05;;
69369;SDS011;56530;42.640;23.372;2022-10-16T11:30:45;2.45;;;2.10;;
69369;SDS011;56530;42.640;23.372;2022-10-16T11:36:12;2.78;;;2.58;;
69369;SDS011;56530;42.640;23.372;2022-10-16T11:46:58;5.90;;;3.25;;
69369;SDS011;56530;42.640;23.372;2022-10-16T11:49:31;3.70;;;2.45;;
69369;SDS011;56530;42.640;23.372;2022-10-16T11:54:52;3.17;;;2.53;;
69369;SDS011;56530;42.640;23.372;2022-10-16T11:57:26;4.15;;;3.22;;
69369;SDS011;56530;42.640;23.372;2022-10-16T11:59:58;2.70;;;2.45;;
69369;SDS011;56530;42.640;23.372;2022-10-16T12:08:27;6.75;;;3.33;;
69369;SDS011;56530;42.640;23.372;2022-10-16T12:10:38;4.50;;;2.40;;
69369;SDS011;56530;42.640;23.372;2022-10-16T12:13:26;5.07;;;2.75;;
69369;SDS011;56530;42.640;23.372;2022-10-16T12:18:41;5.03;;;2.60;;
69369;SDS011;56530;42.640;23.372;2022-10-16T12:21:11;5.40;;;2.92;;
69369;SDS011;56530;42.640;23.372;2022-10-16T12:26:13;8.73;;;3.08;;
69369;SDS011;56530;42.640;23.372;2022-10-16T12:28:38;4.10;;;3.70;;
69369;SDS011;56530;42.640;23.372;2022-10-16T12:31:06;3.60;;;3.05;;
69369;SDS011;56530;42.640;23.372;2022-10-16T12:33:36;3.00;;;2.70;;
69369;SDS011;56530;42.640;23.372;2022-10-16T12:36:11;4.40;;;2.95;;
69369;SDS011;56530;42.640;23.372;2022-10-16T12:38:46;4.75;;;2.63;;
69369;SDS011;56530;42.640;23.372;2022-10-16T12:41:12;3.05;;;2.72;;
69369;SDS011;56530;42.640;23.372;2022-10-16T12:43:46;5.05;;;2.88;;
69369;SDS011;56530;42.640;23.372;2022-10-16T12:48:39;6.32;;;3.53;;
69369;SDS011;56530;42.640;23.372;2022-10-16T12:53:58;3.15;;;2.78;;
69369;SDS011;56530;42.640;23.372;2022-10-16T12:56:26;8.05;;;4.10;;
69369;SDS011;56530;42.640;23.372;2022-10-16T13:02:11;6.38;;;3.33;;
69369;SDS011;56530;42.640;23.372;2022-10-16T13:07:36;3.28;;;2.90;;
69369;SDS011;56530;42.640;23.372;2022-10-16T13:12:52;4.13;;;3.50;;
69369;SDS011;56530;42.640;23.372;2022-10-16T13:29:20;4.30;;;2.72;;
69369;SDS011;56530;42.640;23.372;2022-10-16T13:31:45;3.58;;;2.90;;
69369;SDS011;56530;42.640;23.372;2022-10-16T13:34:15;4.32;;;3.17;;
69369;SDS011;56530;42.640;23.372;2022-10-16T13:36:44;3.97;;;3.28;;
69369;SDS011;56530;42.640;23.372;2022-10-16T13:41:42;3.92;;;3.33;;
69369;SDS011;56530;42.640;23.372;2022-10-16T13:44:15;3.53;;;3.22;;
69369;SDS011;56530;42.640;23.372;2022-10-16T13:46:43;3.80;;;3.50;;
69369;SDS011;56530;42.640;23.372;2022-10-16T13:49:13;3.03;;;2.72;;
69369;SDS011;56530;42.640;23.372;2022-10-16T13:51:40;7.28;;;3.40;;
69369;SDS011;56530;42.640;23.372;2022-10-16T13:54:07;7.10;;;3.25;;
69369;SDS011;56530;42.640;23.372;2022-10-16T13:56:34;3.35;;;3.03;;
69369;SDS011;56530;42.640;23.372;2022-10-16T13:59:01;4.07;;;2.78;;
69369;SDS011;56530;42.640;23.372;2022-10-16T14:01:28;2.83;;;2.63;;
69369;SDS011;56530;42.640;23.372;2022-10-16T14:04:00;5.60;;;2.40;;
69369;SDS011;56530;42.640;23.372;2022-10-16T14:06:26;3.95;;;3.03;;
69369;SDS011;56530;42.640;23.372;2022-10-16T14:08:55;2.63;;;2.40;;
69369;SDS011;56530;42.640;23.372;2022-10-16T14:11:46;9.65;;;4.60;;
69369;SDS011;56530;42.640;23.372;2022-10-16T14:14:22;5.38;;;3.67;;
69369;SDS011;56530;42.640;23.372;2022-10-16T14:16:48;3.00;;;2.78;;
69369;SDS011;56530;42.640;23.372;2022-10-16T14:19:15;6.15;;;3.40;;
69369;SDS011;56530;42.640;23.372;2022-10-16T14:21:44;3.42;;;2.80;;
69369;SDS011;56530;42.640;23.372;2022-10-16T14:24:11;4.20;;;2.70;;
69369;SDS011;56530;42.640;23.372;2022-10-16T14:26:41;3.10;;;2.45;;
69369;SDS011;56530;42.640;23.372;2022-10-16T14:29:12;3.17;;;2.90;;
69369;SDS011;56530;42.640;23.372;2022-10-16T14:31:39;6.55;;;3.33;;
69369;SDS011;56530;42.640;23.372;2022-10-16T14:34:22;5.40;;;2.65;;
69369;SDS011;56530;42.640;23.372;2022-10-16T14:36:49;4.68;;;2.55;;
69369;SDS011;56530;42.640;23.372;2022-10-16T14:39:19;5.22;;;3.78;;
69369;SDS011;56530;42.640;23.372;2022-10-16T14:41:46;7.07;;;3.05;;
69369;SDS011;56530;42.640;23.372;2022-10-16T14:44:13;4.50;;;2.92;;
69369;SDS011;56530;42.640;23.372;2022-10-16T14:46:39;2.75;;;2.25;;
69369;SDS011;56530;42.640;23.372;2022-10-16T14:51:35;4.55;;;2.60;;
69369;SDS011;56530;42.640;23.372;2022-10-16T14:54:01;7.40;;;3.15;;
69369;SDS011;56530;42.640;23.372;2022-10-16T14:56:34;3.88;;;3.47;;
69369;SDS011;56530;42.640;23.372;2022-10-16T14:59:08;4.10;;;3.17;;
69369;SDS011;56530;42.640;23.372;2022-10-16T15:01:43;6.22;;;3.70;;
69369;SDS011;56530;42.640;23.372;2022-10-16T15:04:09;4.32;;;3.28;;
69369;SDS011;56530;42.640;23.372;2022-10-16T15:06:36;3.90;;;2.45;;
69369;SDS011;56530;42.640;23.372;2022-10-16T15:09:02;6.47;;;3.20;;
69369;SDS011;56530;42.640;23.372;2022-10-16T15:11:27;4.28;;;2.35;;
69369;SDS011;56530;42.640;23.372;2022-10-16T15:13:53;5.90;;;3.28;;
69369;SDS011;56530;42.640;23.372;2022-10-16T15:16:18;6.03;;;2.53;;
69369;SDS011;56530;42.640;23.372;2022-10-16T15:18:44;8.80;;;3.20;;
69369;SDS011;56530;42.640;23.372;2022-10-16T15:21:29;11.07;;;4.00;;
69369;SDS011;56530;42.640;23.372;2022-10-16T15:23:56;6.97;;;3.85;;
69369;SDS011;56530;42.640;23.372;2022-10-16T15:26:23;6.60;;;3.83;;
69369;SDS011;56530;42.640;23.372;2022-10-16T15:28:49;5.57;;;4.57;;
69369;SDS011;56530;42.640;23.372;2022-10-16T15:31:15;3.47;;;3.15;;
69369;SDS011;56530;42.640;23.372;2022-10-16T15:33:40;8.90;;;4.45;;
69369;SDS011;56530;42.640;23.372;2022-10-16T15:36:06;7.43;;;4.38;;
69369;SDS011;56530;42.640;23.372;2022-10-16T15:38:31;6.43;;;4.35;;
69369;SDS011;56530;42.640;23.372;2022-10-16T15:40:57;5.18;;;4.25;;
69369;SDS011;56530;42.640;23.372;2022-10-16T15:43:22;5.28;;;4.00;;
69369;SDS011;56530;42.640;23.372;2022-10-16T15:45:58;9.73;;;4.10;;
69369;SDS011;56530;42.640;23.372;2022-10-16T15:48:31;7.85;;;3.20;;
69369;SDS011;56530;42.640;23.372;2022-10-16T15:50:57;9.98;;;3.63;;
69369;SDS011;56530;42.640;23.372;2022-10-16T15:53:23;6.57;;;3.80;;
69369;SDS011;56530;42.640;23.372;2022-10-16T15:55:48;4.53;;;3.55;;
69369;SDS011;56530;42.640;23.372;2022-10-16T15:58:14;6.20;;;3.10;;
69369;SDS011;56530;42.640;23.372;2022-10-16T16:00:39;5.05;;;3.08;;
69369;SDS011;56530;42.640;23.372;2022-10-16T16:03:05;5.15;;;3.40;;
69369;SDS011;56530;42.640;23.372;2022-10-16T16:05:30;4.63;;;4.18;;
69369;SDS011;56530;42.640;23.372;2022-10-16T16:07:56;10.35;;;3.88;;
69369;SDS011;56530;42.640;23.372;2022-10-16T16:10:22;7.60;;;4.10;;
69369;SDS011;56530;42.640;23.372;2022-10-16T16:12:47;7.57;;;4.13;;
69369;SDS011;56530;42.640;23.372;2022-10-16T16:15:18;8.68;;;4.30;;
69369;SDS011;56530;42.640;23.372;2022-10-16T16:17:44;9.18;;;5.28;;
69369;SDS011;56530;42.640;23.372;2022-10-16T16:20:10;6.28;;;5.00;;
69369;SDS011;56530;42.640;23.372;2022-10-16T16:22:36;10.57;;;5.40;;
69369;SDS011;56530;42.640;23.372;2022-10-16T16:25:01;9.90;;;4.47;;
69369;SDS011;56530;42.640;23.372;2022-10-16T16:27:26;7.60;;;5.43;;
69369;SDS011;56530;42.640;23.372;2022-10-16T16:29:54;7.13;;;5.22;;
69369;SDS011;56530;42.640;23.372;2022-10-16T16:32:20;7.13;;;6.10;;
69369;SDS011;56530;42.640;23.372;2022-10-16T16:34:45;9.75;;;6.38;;
69369;SDS011;56530;42.640;23.372;2022-10-16T16:37:11;10.25;;;6.78;;
69369;SDS011;56530;42.640;23.372;2022-10-16T16:39:37;10.48;;;5.47;;